Rechercher aéroport 
image banner adimage banner adimage banner ad
image banner ad

PN82 - West Coplay

Situé à Whitehall, United States

ICAO - PN82, IATA -

Données fournies par Airmate  

Information générale

Coordonnées: N40°40'27" W75°30'18"
Élévation : 375 feet MSL.
 
Voir autres Aéroports à Pennsylvania

Données opérationnelles

Special qualification required
Heure actuelle UTC:
Heure actuelle locale:
Météo à : KABE - Lehigh Valley Intl ( 6 km )
METAR: KABE 150651Z AUTO 24004KT 10SM SCT080 BKN095 17/16 A2979 RMK AO2 SLP086 T01670161
TAF: KABE 150523Z 1506/1606 VRB03KT P6SM BKN080 TEMPO 1508/1512 2SM BR OVC015 FM151400 29008G16KT P6SM BKN050 FM152300 31004KT P6SM SCT050
Voir NOTAMs / SUP AIP / TFR affectant cet aéroport [VIEW]
Fréquences de communication: [VIEW]

Pistes:

Coordonnées de l'aéroport

Adresse: Whitehall United States

Vue satellite de PN82